Time;durP1;ratioP1;P1;durP2;ratioP2;P2;SDS_P1;SDS_P2;PMS_P1;PMS_P2;Temp;Humidity;BMP_temperature;BMP_pressure;BME280_temperature;BME280_humidity;BME280_pressure;Samples;Min_cycle;Max_cycle;Signal;HPM_P1;HPM_P2
2024/02/10 00:02:57;;;;;;;17.50;12.65;;;23.00;45.70;;;;;;6154988;28;84607;-59
2024/02/10 00:06:00;;;;;;;17.55;13.65;;;23.10;45.50;;;;;;6151982;28;83137;-59
2024/02/10 00:09:01;;;;;;;18.65;12.98;;;23.10;45.40;;;;;;6152649;28;83246;-60
2024/02/10 00:12:01;;;;;;;15.25;11.95;;;23.00;45.40;;;;;;6171031;28;83128;-60
2024/02/10 00:15:05;;;;;;;17.15;13.32;;;23.00;45.30;;;;;;6175579;28;83209;-60
2024/02/10 00:18:05;;;;;;;15.98;12.52;;;23.10;45.50;;;;;;6176236;28;83196;-60
2024/02/10 00:21:07;;;;;;;13.88;11.63;;;23.10;45.30;;;;;;6176416;28;83203;-60
2024/02/10 00:24:07;;;;;;;14.55;11.77;;;23.00;45.40;;;;;;6176062;28;83139;-60
2024/02/10 00:27:08;;;;;;;15.85;11.90;;;23.00;45.40;;;;;;6176870;28;83131;-60
2024/02/10 00:30:08;;;;;;;17.58;13.18;;;23.00;45.50;;;;;;6176064;28;83498;-60
2024/02/10 00:33:09;;;;;;;15.88;12.13;;;23.00;45.50;;;;;;6166512;28;84870;-60
2024/02/10 00:36:09;;;;;;;17.58;12.40;;;23.10;45.70;;;;;;6174796;28;83749;-59
2024/02/10 00:39:11;;;;;;;18.48;12.52;;;23.00;45.70;;;;;;6174334;28;83827;-59
2024/02/10 00:42:13;;;;;;;16.17;11.88;;;23.00;46.10;;;;;;6174123;28;83349;-60
2024/02/10 00:45:13;;;;;;;18.30;12.48;;;23.00;45.80;;;;;;6174356;28;83320;-59
2024/02/10 00:48:14;;;;;;;21.15;13.88;;;23.00;46.30;;;;;;6174610;28;84270;-50
2024/02/10 00:51:15;;;;;;;17.92;11.77;;;23.00;46.00;;;;;;6176188;28;82913;-48
2024/02/10 00:54:22;;;;;;;17.50;12.50;;;23.00;46.00;;;;;;6165508;28;83500;-46
2024/02/10 00:57:23;;;;;;;19.65;13.77;;;23.00;46.10;;;;;;6165122;28;87006;-48
2024/02/10 01:00:23;;;;;;;16.15;12.10;;;23.00;46.10;;;;;;6153501;28;84049;-53
2024/02/10 01:03:24;;;;;;;16.90;12.63;;;23.00;45.80;;;;;;6174123;28;83198;-50
2024/02/10 01:06:26;;;;;;;22.73;14.95;;;23.00;45.60;;;;;;6170504;28;83717;-46
2024/02/10 01:09:26;;;;;;;17.85;13.05;;;23.00;45.70;;;;;;6156072;28;83715;-53
2024/02/10 01:12:27;;;;;;;23.10;15.65;;;23.00;45.70;;;;;;6172075;28;83347;-50
2024/02/10 01:15:30;;;;;;;20.60;15.10;;;23.00;45.50;;;;;;6148236;28;82996;-48
2024/02/10 01:18:33;;;;;;;22.80;16.08;;;23.00;45.50;;;;;;6160082;28;82834;-50
2024/02/10 01:21:33;;;;;;;26.45;16.67;;;23.00;45.40;;;;;;6163564;28;84389;-53
2024/02/10 01:24:35;;;;;;;21.25;15.02;;;23.00;45.40;;;;;;6156994;28;83140;-47
2024/02/10 01:27:36;;;;;;;26.10;17.08;;;23.10;45.80;;;;;;6152924;28;83791;-49
2024/02/10 01:30:36;;;;;;;24.75;17.38;;;23.00;45.70;;;;;;6150963;28;86354;-48
2024/02/10 01:33:37;;;;;;;27.55;18.52;;;23.00;46.20;;;;;;6152300;28;82813;-46
2024/02/10 01:36:37;;;;;;;28.88;19.02;;;23.00;46.00;;;;;;6159978;28;83481;-49
2024/02/10 01:39:38;;;;;;;30.52;19.95;;;23.00;46.10;;;;;;6175434;28;83447;-49
2024/02/10 01:42:38;;;;;;;31.02;19.85;;;23.00;46.30;;;;;;6176040;28;83652;-51
2024/02/10 01:45:39;;;;;;;32.10;20.67;;;23.00;46.20;;;;;;6176025;28;82751;-50
2024/02/10 01:48:40;;;;;;;28.80;19.55;;;23.00;45.90;;;;;;6172851;28;84697;-53
2024/02/10 01:51:40;;;;;;;32.63;19.88;;;23.00;45.80;;;;;;6174010;28;83139;-51
2024/02/10 01:54:43;;;;;;;28.50;18.00;;;23.00;45.60;;;;;;6161489;28;84769;-52
2024/02/10 01:57:44;;;;;;;27.52;18.80;;;23.00;45.60;;;;;;6162182;28;83156;-51
2024/02/10 02:00:44;;;;;;;26.95;18.25;;;23.00;45.60;;;;;;6175873;28;83312;-59
2024/02/10 02:03:45;;;;;;;28.45;18.25;;;23.00;45.60;;;;;;6162742;28;83834;-62
2024/02/10 02:06:46;;;;;;;27.55;18.40;;;23.00;45.60;;;;;;6171998;28;82936;-59
2024/02/10 02:09:46;;;;;;;32.28;18.83;;;23.00;45.70;;;;;;6173058;28;83413;-58
2024/02/10 02:12:48;;;;;;;26.80;18.10;;;23.00;45.60;;;;;;6174022;28;83145;-59
2024/02/10 02:15:48;;;;;;;25.65;17.23;;;23.00;46.20;;;;;;6174989;28;83851;-59
2024/02/10 02:18:49;;;;;;;28.52;18.65;;;23.00;45.60;;;;;;6172389;28;86436;-51
2024/02/10 02:21:49;;;;;;;28.35;18.05;;;23.00;45.60;;;;;;6175569;28;83940;-49
2024/02/10 02:24:50;;;;;;;28.35;18.70;;;23.00;45.60;;;;;;6174189;28;83445;-53
2024/02/10 02:27:51;;;;;;;29.23;19.17;;;23.00;45.60;;;;;;6172673;28;83125;-52
2024/02/10 02:30:51;;;;;;;28.83;19.17;;;23.00;46.00;;;;;;6154124;28;83158;-52
2024/02/10 02:33:53;;;;;;;27.15;16.52;;;23.00;45.50;;;;;;6150227;28;83453;-52
2024/02/10 02:36:54;;;;;;;30.42;18.00;;;23.00;45.70;;;;;;6150361;28;83819;-49
2024/02/10 02:39:54;;;;;;;24.85;16.30;;;23.00;45.80;;;;;;6142595;28;87830;-46
2024/02/10 02:42:55;;;;;;;23.83;16.30;;;23.00;45.60;;;;;;6173451;28;83942;-51
2024/02/10 02:45:56;;;;;;;25.95;17.08;;;23.00;45.60;;;;;;6167145;28;83020;-48
2024/02/10 02:48:56;;;;;;;26.48;17.25;;;23.00;45.60;;;;;;6157871;28;83288;-47
2024/02/10 02:51:57;;;;;;;26.80;16.23;;;23.00;45.70;;;;;;6173257;28;83518;-46
2024/02/10 02:54:59;;;;;;;25.25;15.90;;;23.00;45.70;;;;;;6172718;28;88993;-49
2024/02/10 02:58:03;;;;;;;25.83;16.30;;;23.00;45.70;;;;;;6157671;28;83086;-49
2024/02/10 03:01:07;;;;;;;24.83;16.88;;;23.00;45.90;;;;;;6133643;28;83021;-47
2024/02/10 03:04:08;;;;;;;25.75;16.08;;;23.00;45.60;;;;;;6148996;28;84704;-49
2024/02/10 03:07:08;;;;;;;25.02;15.50;;;23.00;45.70;;;;;;6136688;28;84348;-48
2024/02/10 03:10:09;;;;;;;25.50;16.95;;;23.00;45.60;;;;;;6161333;28;83211;-49
2024/02/10 03:13:09;;;;;;;25.83;16.98;;;23.00;45.70;;;;;;6150702;28;84750;-49
2024/02/10 03:16:10;;;;;;;24.67;16.17;;;23.00;45.70;;;;;;6148997;28;83286;-49
2024/02/10 03:19:10;;;;;;;24.55;16.80;;;23.00;45.70;;;;;;6149303;28;83395;-47
2024/02/10 03:22:12;;;;;;;25.25;16.60;;;23.00;45.80;;;;;;6149203;28;83197;-50
2024/02/10 03:25:15;;;;;;;22.73;15.55;;;23.00;45.80;;;;;;6150174;28;84211;-51
2024/02/10 03:28:15;;;;;;;24.50;16.70;;;23.00;45.80;;;;;;6148548;28;84479;-50
2024/02/10 03:31:16;;;;;;;24.27;17.05;;;23.00;45.80;;;;;;6150509;28;82908;-52
2024/02/10 03:34:16;;;;;;;19.80;15.20;;;23.00;45.80;;;;;;6139073;28;83096;-48
2024/02/10 03:37:18;;;;;;;23.60;16.38;;;23.00;46.10;;;;;;6147068;28;83191;-54
2024/02/10 03:40:19;;;;;;;25.42;15.98;;;22.90;45.90;;;;;;6147357;28;83223;-53
2024/02/10 03:43:22;;;;;;;24.63;16.52;;;22.90;46.00;;;;;;6143038;28;83171;-47
2024/02/10 03:46:23;;;;;;;23.00;15.35;;;22.90;46.00;;;;;;6138996;28;83200;-49
2024/02/10 03:49:23;;;;;;;25.55;17.13;;;23.00;45.90;;;;;;6138665;28;83397;-49
2024/02/10 03:52:25;;;;;;;24.50;16.92;;;23.00;45.80;;;;;;6137224;28;83287;-58
2024/02/10 03:55:25;;;;;;;24.50;16.70;;;23.00;45.80;;;;;;6142133;28;84319;-59
2024/02/10 03:58:26;;;;;;;24.10;16.98;;;23.00;45.90;;;;;;6144268;28;83019;-59
2024/02/10 04:01:27;;;;;;;23.65;17.05;;;23.00;45.70;;;;;;6148517;28;82875;-59
2024/02/10 04:04:28;;;;;;;28.88;18.63;;;23.00;45.80;;;;;;6149281;28;85865;-58
2024/02/10 04:07:29;;;;;;;24.88;16.42;;;23.00;45.80;;;;;;6148938;28;83214;-59
2024/02/10 04:10:30;;;;;;;27.23;19.02;;;23.00;45.90;;;;;;6148844;28;83274;-60
2024/02/10 04:13:30;;;;;;;25.40;17.77;;;23.00;45.60;;;;;;6149321;28;83043;-60
2024/02/10 04:16:31;;;;;;;26.05;17.42;;;23.00;45.80;;;;;;6148820;28;83018;-59
2024/02/10 04:19:32;;;;;;;27.73;18.98;;;23.00;45.80;;;;;;6147864;28;83237;-59
2024/02/10 04:22:32;;;;;;;30.25;19.45;;;23.00;45.90;;;;;;6146336;28;86976;-58
2024/02/10 04:25:33;;;;;;;28.52;18.88;;;23.10;45.70;;;;;;6147906;28;84410;-60
2024/02/10 04:28:33;;;;;;;32.67;21.98;;;23.10;45.40;;;;;;6148956;28;83255;-59
2024/02/10 04:31:39;;;;;;;32.85;20.25;;;23.10;45.40;;;;;;6136011;28;82918;-60
2024/02/10 04:34:40;;;;;;;;;;;23.20;45.30;;;;;;6149008;28;82944;-60
2024/02/10 04:37:51;;;;;;;28.50;19.20;;;23.20;45.20;;;;;;6158041;28;82842;-60
2024/02/10 04:40:51;;;;;;;31.70;20.48;;;23.20;45.30;;;;;;6147196;28;84024;-60
2024/02/10 04:43:52;;;;;;;32.53;20.35;;;23.20;45.10;;;;;;6146414;28;83188;-60
2024/02/10 04:46:52;;;;;;;31.42;20.10;;;23.20;45.10;;;;;;6139562;28;83838;-58
2024/02/10 04:49:53;;;;;;;29.98;20.40;;;23.20;45.10;;;;;;6141948;28;84276;-55
2024/02/10 04:52:55;;;;;;;31.38;20.17;;;23.30;45.30;;;;;;6140432;28;83228;-58
2024/02/10 04:55:55;;;;;;;28.38;19.98;;;23.30;45.20;;;;;;6151315;28;83150;-58
2024/02/10 04:58:57;;;;;;;29.38;19.35;;;23.30;45.20;;;;;;6153365;28;84384;-56
2024/02/10 05:01:57;;;;;;;30.20;19.88;;;23.30;45.30;;;;;;6151841;28;83690;-59
2024/02/10 05:04:58;;;;;;;32.38;20.30;;;23.40;45.30;;;;;;6135128;28;87287;-58
2024/02/10 05:07:58;;;;;;;28.85;19.27;;;23.30;45.30;;;;;;6139394;28;85536;-57
2024/02/10 05:10:59;;;;;;;28.08;19.40;;;23.40;45.30;;;;;;6149420;28;84252;-57
2024/02/10 05:13:59;;;;;;;28.35;18.90;;;23.30;45.20;;;;;;6148170;28;84402;-58
2024/02/10 05:17:00;;;;;;;29.92;19.88;;;23.40;45.30;;;;;;6131059;28;83427;-57
2024/02/10 05:20:13;;;;;;;28.02;19.25;;;23.40;45.20;;;;;;6139458;28;84686;-57
2024/02/10 05:23:14;;;;;;;25.85;18.98;;;23.50;46.00;;;;;;6137432;28;83261;-60
2024/02/10 05:26:15;;;;;;;30.15;19.33;;;23.40;45.40;;;;;;6147968;28;84007;-60
2024/02/10 05:29:18;;;;;;;27.52;19.45;;;23.40;45.50;;;;;;6148633;28;84677;-58
2024/02/10 05:32:18;;;;;;;26.13;18.67;;;23.50;45.50;;;;;;6141722;28;84246;-59
2024/02/10 05:35:19;;;;;;;28.00;19.27;;;23.50;45.40;;;;;;6149684;28;83543;-58
2024/02/10 05:38:21;;;;;;;29.25;18.55;;;23.50;45.60;;;;;;6150699;28;83020;-57
2024/02/10 05:41:23;;;;;;;28.92;19.83;;;23.50;45.50;;;;;;6150612;28;83317;-58
2024/02/10 05:44:24;;;;;;;26.75;18.38;;;23.50;45.40;;;;;;6150470;28;84598;-57
2024/02/10 05:47:24;;;;;;;28.65;19.67;;;23.50;45.40;;;;;;6138441;28;83482;-57
2024/02/10 05:50:25;;;;;;;26.58;18.65;;;23.50;45.40;;;;;;6136421;28;84534;-58
2024/02/10 05:53:25;;;;;;;30.73;20.30;;;23.50;45.40;;;;;;6148701;28;83772;-59
2024/02/10 05:56:29;;;;;;;29.15;18.77;;;23.50;45.30;;;;;;6150169;28;83273;-58
2024/02/10 05:59:29;;;;;;;27.83;19.70;;;23.50;45.30;;;;;;6149387;28;84009;-58
2024/02/10 06:02:30;;;;;;;28.00;19.83;;;23.50;45.30;;;;;;6149063;28;83706;-55
2024/02/10 06:05:30;;;;;;;28.23;19.08;;;23.50;45.30;;;;;;6150928;28;83458;-56
2024/02/10 06:08:31;;;;;;;30.52;20.45;;;23.50;45.40;;;;;;6149686;28;83476;-58
2024/02/10 06:11:33;;;;;;;27.65;18.38;;;23.50;45.30;;;;;;6145802;28;83598;-58
2024/02/10 06:14:37;;;;;;;29.08;19.50;;;23.50;45.40;;;;;;6146951;28;83446;-58
2024/02/10 06:17:38;;;;;;;27.92;18.50;;;23.50;45.60;;;;;;6149220;28;85421;-58
2024/02/10 06:20:40;;;;;;;31.67;19.58;;;23.50;45.40;;;;;;6145645;28;86547;-59
2024/02/10 06:23:42;;;;;;;26.40;19.45;;;23.50;45.50;;;;;;6148735;28;83300;-55
2024/02/10 06:26:43;;;;;;;29.70;20.52;;;23.50;45.60;;;;;;6135371;28;90107;-58
2024/02/10 06:29:45;;;;;;;27.50;19.42;;;23.50;45.50;;;;;;6158491;28;83569;-59
2024/02/10 06:32:45;;;;;;;28.00;18.92;;;23.50;45.50;;;;;;6150150;28;83371;-58
2024/02/10 06:35:49;;;;;;;27.55;18.42;;;23.50;45.60;;;;;;6147700;28;83777;-59
2024/02/10 06:38:51;;;;;;;29.90;20.23;;;23.50;45.80;;;;;;6142912;28;83831;-59
2024/02/10 06:41:52;;;;;;;31.73;18.33;;;23.50;45.90;;;;;;6148049;28;85564;-58
2024/02/10 06:44:52;;;;;;;25.90;18.58;;;23.50;46.30;;;;;;6140058;28;83415;-58
2024/02/10 06:47:53;;;;;;;31.20;18.30;;;23.50;46.30;;;;;;6132918;28;86542;-65
2024/02/10 06:50:56;;;;;;;31.23;18.10;;;23.50;46.30;;;;;;6142666;28;85468;-68
2024/02/10 06:53:58;;;;;;;27.85;18.10;;;23.50;47.10;;;;;;6142547;28;83002;-58
2024/02/10 06:57:01;;;;;;;27.73;17.15;;;23.50;46.40;;;;;;6148795;28;82991;-50
2024/02/10 07:00:13;;;;;;;27.42;17.08;;;23.50;46.60;;;;;;6141782;28;83451;-53
2024/02/10 07:03:17;;;;;;;25.27;17.02;;;23.40;46.70;;;;;;6143096;28;83049;-53
2024/02/10 07:06:18;;;;;;;26.35;16.90;;;23.40;46.80;;;;;;6130430;28;90401;-53
2024/02/10 07:09:19;;;;;;;28.63;18.17;;;23.40;46.60;;;;;;6164450;28;87930;-58
2024/02/10 07:12:20;;;;;;;31.98;18.48;;;23.40;46.70;;;;;;6148490;28;83232;-52
2024/02/10 07:15:20;;;;;;;27.85;17.83;;;23.40;46.70;;;;;;6146663;28;83250;-58
2024/02/10 07:18:21;;;;;;;29.67;18.02;;;23.40;47.10;;;;;;6148508;28;82985;-59
2024/02/10 07:21:21;;;;;;;29.60;18.48;;;23.40;46.90;;;;;;6148003;28;83149;-59
2024/02/10 07:24:23;;;;;;;31.23;17.80;;;23.40;46.90;;;;;;6138476;28;85729;-57
2024/02/10 07:27:26;;;;;;;32.92;17.85;;;23.50;47.10;;;;;;6148676;28;83451;-59
2024/02/10 07:30:27;;;;;;;29.80;17.02;;;23.50;46.80;;;;;;6147978;28;83047;-60
2024/02/10 07:33:27;;;;;;;26.85;17.42;;;23.50;47.80;;;;;;6149600;28;83437;-52
2024/02/10 07:36:35;;;;;;;33.10;18.75;;;23.50;47.60;;;;;;6170772;28;83394;-48
2024/02/10 07:39:35;;;;;;;32.13;19.27;;;23.50;48.00;;;;;;6148533;28;84090;-56
2024/02/10 07:42:36;;;;;;;33.78;19.67;;;23.50;48.50;;;;;;6140437;28;84881;-54
2024/02/10 07:45:36;;;;;;;33.28;19.95;;;23.50;49.60;;;;;;6148150;28;85461;-55
2024/02/10 07:48:37;;;;;;;32.30;18.30;;;23.50;49.60;;;;;;6135216;28;83068;-52
2024/02/10 07:51:39;;;;;;;29.75;17.77;;;23.60;49.70;;;;;;6147705;28;85253;-55
2024/02/10 07:54:41;;;;;;;32.45;18.95;;;23.60;49.50;;;;;;6140833;28;85559;-53
2024/02/10 07:57:42;;;;;;;31.75;16.95;;;23.60;49.30;;;;;;6144790;28;83232;-54
2024/02/10 08:00:42;;;;;;;30.13;17.65;;;23.50;49.40;;;;;;6146451;28;84402;-53
2024/02/10 08:03:44;;;;;;;25.15;16.77;;;23.50;49.20;;;;;;6141622;28;83722;-50
2024/02/10 08:06:45;;;;;;;26.70;15.98;;;23.50;48.80;;;;;;6147401;28;84008;-55
2024/02/10 08:09:46;;;;;;;24.98;16.27;;;23.60;48.80;;;;;;6147161;28;83453;-55
2024/02/10 08:12:49;;;;;;;26.38;15.63;;;23.60;48.30;;;;;;6149801;28;83165;-55
2024/02/10 08:15:50;;;;;;;27.15;17.02;;;23.60;48.20;;;;;;6147974;28;85045;-50
2024/02/10 08:18:50;;;;;;;24.48;15.55;;;23.50;48.40;;;;;;6145658;28;83339;-59
2024/02/10 08:21:51;;;;;;;29.15;17.27;;;23.50;48.10;;;;;;6137066;28;83420;-50
2024/02/10 08:24:55;;;;;;;23.55;15.80;;;23.50;48.90;;;;;;6144683;28;85323;-52
2024/02/10 08:27:56;;;;;;;25.52;15.35;;;23.50;49.90;;;;;;6144957;28;83039;-61
2024/02/10 08:30:59;;;;;;;27.70;15.98;;;23.50;49.70;;;;;;6151536;28;83156;-61
2024/02/10 08:33:59;;;;;;;27.65;15.90;;;23.50;49.60;;;;;;6150693;28;83454;-61
2024/02/10 08:37:02;;;;;;;22.00;15.07;;;23.50;49.90;;;;;;6143623;28;82926;-63
2024/02/10 08:40:03;;;;;;;22.45;14.43;;;23.50;50.00;;;;;;6145012;28;82761;-60
2024/02/10 08:43:08;;;;;;;23.98;14.65;;;23.50;49.60;;;;;;6147991;28;85734;-61
2024/02/10 08:46:08;;;;;;;26.50;14.60;;;23.50;49.90;;;;;;6147357;28;83781;-58
2024/02/10 08:49:14;;;;;;;25.48;15.32;;;23.50;49.80;;;;;;6149796;28;83593;-52
2024/02/10 08:52:19;;;;;;;23.95;14.48;;;23.60;50.10;;;;;;6147606;28;83804;-58
2024/02/10 08:55:26;;;;;;;28.40;15.25;;;23.50;50.00;;;;;;6150181;28;83964;-58
2024/02/10 08:58:28;;;;;;;22.45;14.80;;;23.50;49.70;;;;;;6140055;28;90755;-59
2024/02/10 09:01:28;;;;;;;25.15;16.05;;;23.50;49.70;;;;;;6150706;28;88914;-59
2024/02/10 09:04:29;;;;;;;23.58;14.32;;;23.50;49.50;;;;;;6163415;28;88271;-66
2024/02/10 09:07:29;;;;;;;21.35;13.95;;;23.50;49.60;;;;;;6152029;28;83381;-62
2024/02/10 09:10:30;;;;;;;21.58;13.27;;;23.50;49.50;;;;;;6152041;28;83636;-61
2024/02/10 09:13:30;;;;;;;22.75;13.73;;;23.50;49.40;;;;;;6146168;28;83259;-68
2024/02/10 09:16:32;;;;;;;24.73;12.60;;;23.50;50.00;;;;;;6138607;28;85205;-65
2024/02/10 09:19:36;;;;;;;17.40;11.32;;;23.50;50.10;;;;;;6151179;28;83163;-62
2024/02/10 09:22:37;;;;;;;20.55;12.55;;;23.50;49.80;;;;;;6138837;28;84015;-61
2024/02/10 09:25:38;;;;;;;21.15;12.57;;;23.60;49.80;;;;;;6145524;28;84315;-58
2024/02/10 09:28:39;;;;;;;20.05;12.05;;;23.60;49.70;;;;;;6146718;28;83367;-57
2024/02/10 09:31:39;;;;;;;22.35;12.35;;;23.60;49.70;;;;;;6134664;28;84366;-58
2024/02/10 09:34:40;;;;;;;19.10;11.23;;;23.60;49.60;;;;;;6144154;28;83221;-59
2024/02/10 09:37:40;;;;;;;17.85;11.80;;;23.70;49.60;;;;;;6153037;28;82860;-60
2024/02/10 09:40:41;;;;;;;17.25;11.10;;;23.70;49.50;;;;;;6149186;28;84475;-60
2024/02/10 09:43:48;;;;;;;16.13;10.40;;;23.80;49.50;;;;;;6152101;28;82940;-60
2024/02/10 09:46:50;;;;;;;13.63;9.38;;;23.90;49.30;;;;;;6144100;28;83212;-59
2024/02/10 09:49:51;;;;;;;12.85;9.88;;;23.90;49.20;;;;;;6148357;28;82861;-66
2024/02/10 09:52:51;;;;;;;13.65;9.65;;;23.90;49.00;;;;;;6153477;28;80780;-66
2024/02/10 09:55:52;;;;;;;14.07;8.73;;;23.90;49.00;;;;;;6140371;28;80851;-65
2024/02/10 09:58:53;;;;;;;16.65;10.00;;;24.00;48.90;;;;;;6144136;28;80385;-58
2024/02/10 10:01:54;;;;;;;13.60;10.02;;;24.00;48.70;;;;;;6148798;28;86355;-56
2024/02/10 10:04:54;;;;;;;14.07;9.93;;;24.10;48.90;;;;;;6152867;28;84272;-58
2024/02/10 10:07:55;;;;;;;14.15;10.35;;;24.00;48.80;;;;;;6150093;28;83098;-56
2024/02/10 10:10:56;;;;;;;14.20;9.45;;;24.00;48.80;;;;;;6144904;28;83961;-56
2024/02/10 10:13:57;;;;;;;12.35;8.73;;;24.00;48.80;;;;;;6155813;28;81844;-59
2024/02/10 10:16:58;;;;;;;13.38;9.27;;;24.10;48.80;;;;;;6155583;28;81002;-68
2024/02/10 10:19:58;;;;;;;14.20;9.77;;;24.10;49.00;;;;;;6154959;28;82779;-62
2024/02/10 10:22:59;;;;;;;15.48;8.52;;;24.10;49.10;;;;;;6156211;28;80412;-64
2024/02/10 10:25:59;;;;;;;14.88;9.52;;;24.20;49.40;;;;;;6153831;28;80691;-64
2024/02/10 10:29:00;;;;;;;12.45;8.63;;;24.30;49.40;;;;;;6150228;28;80645;-61
2024/02/10 10:32:02;;;;;;;14.38;10.52;;;24.30;49.20;;;;;;6152670;28;82071;-62
2024/02/10 10:35:02;;;;;;;16.20;9.23;;;24.40;49.50;;;;;;6152093;28;83196;-61
2024/02/10 10:38:03;;;;;;;13.10;7.97;;;24.40;48.50;;;;;;6154330;28;82798;-61
2024/02/10 10:41:04;;;;;;;11.98;7.25;;;24.50;48.20;;;;;;6151707;28;80210;-62
2024/02/10 10:44:04;;;;;;;9.88;6.88;;;24.60;48.00;;;;;;6152234;28;81521;-61
2024/02/10 10:47:05;;;;;;;9.02;5.60;;;24.50;47.80;;;;;;6140898;28;81002;-60
2024/02/10 10:50:06;;;;;;;11.18;6.03;;;24.50;47.60;;;;;;6120793;28;83565;-62
2024/02/10 10:53:09;;;;;;;9.65;4.60;;;24.50;47.40;;;;;;6151833;28;80750;-67
2024/02/10 10:56:10;;;;;;;9.02;4.45;;;24.40;47.10;;;;;;6143057;28;80493;-63
2024/02/10 10:59:10;;;;;;;7.97;4.18;;;24.40;46.90;;;;;;6152022;28;81392;-61
2024/02/10 11:02:12;;;;;;;7.95;4.18;;;24.50;46.70;;;;;;6153656;28;80576;-62
2024/02/10 11:05:16;;;;;;;8.38;3.83;;;24.40;46.70;;;;;;6153438;28;82719;-59
2024/02/10 11:08:17;;;;;;;8.73;3.83;;;24.40;46.70;;;;;;6138218;28;80764;-61
2024/02/10 11:11:18;;;;;;;6.85;3.75;;;24.40;46.80;;;;;;6143069;28;82731;-63
2024/02/10 11:14:18;;;;;;;6.97;3.55;;;24.40;46.60;;;;;;6161350;28;80552;-64
2024/02/10 11:17:19;;;;;;;7.13;3.15;;;24.40;47.40;;;;;;6151179;28;80303;-65
2024/02/10 11:20:20;;;;;;;4.20;3.20;;;24.40;46.80;;;;;;6151882;28;82660;-60
2024/02/10 11:23:20;;;;;;;6.78;3.88;;;24.30;46.70;;;;;;6149843;28;80758;-60
2024/02/10 11:26:21;;;;;;;6.47;3.33;;;24.20;46.70;;;;;;6143306;28;83644;-59
2024/02/10 11:29:22;;;;;;;5.35;2.85;;;24.20;46.70;;;;;;6130212;28;83094;-60
2024/02/10 11:32:23;;;;;;;5.57;3.00;;;24.10;46.70;;;;;;6151798;28;80507;-60
2024/02/10 11:35:23;;;;;;;4.72;2.80;;;24.10;47.00;;;;;;6151392;28;80294;-60
2024/02/10 11:38:24;;;;;;;4.45;2.42;;;24.10;47.20;;;;;;6148715;28;82850;-61
2024/02/10 11:41:24;;;;;;;5.47;2.88;;;24.10;46.80;;;;;;6150582;28;80235;-64
2024/02/10 11:44:36;;;;;;;4.82;3.13;;;24.10;46.80;;;;;;6146194;28;85975;-61
2024/02/10 11:47:36;;;;;;;5.88;2.58;;;24.10;46.90;;;;;;6147640;28;83230;-60
2024/02/10 11:50:46;;;;;;;5.70;2.65;;;24.00;46.60;;;;;;6144119;28;80877;-60
2024/02/10 11:53:46;;;;;;;9.05;3.50;;;24.10;46.80;;;;;;6148434;28;84097;-60
2024/02/10 11:56:50;;;;;;;8.25;3.70;;;24.00;48.00;;;;;;6143129;28;80420;-60
2024/02/10 11:59:50;;;;;;;5.00;3.50;;;24.00;48.70;;;;;;6152758;28;81402;-62
2024/02/10 12:02:51;;;;;;;6.25;3.15;;;24.00;49.00;;;;;;6159164;28;80275;-61
2024/02/10 12:05:52;;;;;;;6.65;3.45;;;23.90;49.60;;;;;;6158205;28;83310;-61
2024/02/10 12:08:53;;;;;;;4.88;2.63;;;23.90;49.30;;;;;;6156009;28;80337;-63
2024/02/10 12:11:53;;;;;;;6.22;3.03;;;23.90;48.90;;;;;;6155987;28;81225;-66
2024/02/10 12:14:54;;;;;;;5.15;2.80;;;23.90;49.00;;;;;;6156323;28;81713;-61
2024/02/10 12:17:55;;;;;;;8.07;3.00;;;23.90;48.80;;;;;;6154595;28;80310;-61
2024/02/10 12:20:55;;;;;;;11.95;5.70;;;23.90;48.50;;;;;;6153789;28;80867;-58
2024/02/10 12:23:56;;;;;;;12.02;5.90;;;24.00;49.20;;;;;;6140113;28;80780;-60
2024/02/10 12:26:57;;;;;;;12.25;6.32;;;24.00;48.80;;;;;;6152344;28;80750;-60
2024/02/10 12:30:00;;;;;;;19.65;10.85;;;24.10;48.10;;;;;;6153149;28;80752;-59
2024/02/10 12:33:01;;;;;;;24.63;15.05;;;24.20;47.80;;;;;;6146131;28;84343;-61
2024/02/10 12:36:01;;;;;;;32.47;23.48;;;24.20;47.40;;;;;;6150137;28;82707;-61
2024/02/10 12:39:05;;;;;;;36.33;29.60;;;24.20;47.20;;;;;;6152669;28;83563;-61
2024/02/10 12:42:05;;;;;;;39.90;30.42;;;24.20;46.80;;;;;;6152835;28;84757;-60
2024/02/10 12:45:06;;;;;;;38.97;29.00;;;24.30;46.70;;;;;;6138315;28;82856;-61
2024/02/10 12:48:08;;;;;;;34.63;25.88;;;24.40;46.50;;;;;;6149780;28;83162;-60
2024/02/10 12:51:09;;;;;;;16.08;11.75;;;24.40;46.30;;;;;;6152057;28;84135;-60
2024/02/10 12:54:10;;;;;;;19.83;14.05;;;24.30;44.90;;;;;;6151895;28;83043;-60
2024/02/10 12:57:12;;;;;;;17.50;12.43;;;24.40;45.70;;;;;;6146595;28;83127;-59
2024/02/10 13:00:21;;;;;;;25.20;11.90;;;24.40;45.90;;;;;;6140874;28;90457;-60
2024/02/10 13:03:22;;;;;;;18.05;10.40;;;24.50;46.10;;;;;;6152489;28;88347;-58
2024/02/10 13:06:23;;;;;;;13.68;9.32;;;24.50;46.20;;;;;;6168599;28;87240;-58
2024/02/10 13:09:23;;;;;;;14.70;9.18;;;24.50;46.30;;;;;;6136264;28;83379;-58
2024/02/10 13:12:24;;;;;;;16.05;7.90;;;24.60;46.40;;;;;;6151881;28;80797;-57
2024/02/10 13:15:28;;;;;;;15.13;7.43;;;24.60;46.10;;;;;;6152607;28;80624;-59
2024/02/10 13:18:28;;;;;;;15.82;7.07;;;24.60;46.00;;;;;;6143912;28;81579;-60
2024/02/10 13:21:29;;;;;;;18.92;6.05;;;24.60;46.00;;;;;;6150703;28;80237;-57
2024/02/10 13:24:29;;;;;;;13.13;5.55;;;24.60;45.90;;;;;;6152297;28;80939;-58
2024/02/10 13:27:30;;;;;;;9.85;5.05;;;24.50;45.90;;;;;;6154315;28;80468;-69
2024/02/10 13:30:31;;;;;;;12.18;5.03;;;24.50;45.80;;;;;;6146668;28;80820;-63
2024/02/10 13:33:31;;;;;;;8.88;4.53;;;24.50;46.40;;;;;;6148180;28;80359;-59
2024/02/10 14:03:00;;;;;;;4.25;2.88;;;24.40;46.10;;;;;;6156159;28;80172;-60
2024/02/10 14:06:08;;;;;;;5.30;2.50;;;24.40;46.00;;;;;;6139115;28;84113;-62
2024/02/10 14:09:11;;;;;;;4.55;2.88;;;24.40;46.00;;;;;;6144966;28;80535;-62
2024/02/10 14:12:11;;;;;;;7.15;3.08;;;24.40;46.10;;;;;;6150542;28;81488;-61
2024/02/10 14:15:20;;;;;;;4.15;2.67;;;24.30;46.00;;;;;;6139333;28;80813;-60
2024/02/10 14:18:28;;;;;;;5.78;2.70;;;24.20;46.00;;;;;;6165287;28;85150;-61
2024/02/10 14:21:32;;;;;;;7.78;3.13;;;24.20;46.00;;;;;;6153037;28;80901;-62
2024/02/10 14:24:32;;;;;;;3.92;2.30;;;24.20;45.90;;;;;;6153481;28;80842;-63
2024/02/10 14:27:33;;;;;;;4.28;2.45;;;24.20;45.90;;;;;;6147846;28;87652;-60
2024/02/10 14:30:38;;;;;;;3.92;2.65;;;24.10;45.80;;;;;;6140266;28;81608;-59
2024/02/10 14:33:40;;;;;;;6.10;3.00;;;24.10;45.90;;;;;;6150543;28;80532;-59
2024/02/10 14:36:51;;;;;;;3.95;2.83;;;24.10;45.80;;;;;;6172583;28;81234;-59
2024/02/10 14:39:53;;;;;;;6.88;2.78;;;24.10;45.80;;;;;;6184304;28;80505;-64
2024/02/10 14:42:54;;;;;;;4.93;2.55;;;24.00;45.60;;;;;;6154744;28;80167;-58
2024/02/10 14:45:57;;;;;;;7.10;3.05;;;24.00;45.80;;;;;;6151602;28;82112;-57
2024/02/10 14:48:57;;;;;;;4.30;2.55;;;24.00;45.80;;;;;;6149181;28;80642;-57
2024/02/10 14:51:58;;;;;;;2.90;2.25;;;24.00;45.70;;;;;;6153225;28;80392;-58
2024/02/10 14:54:58;;;;;;;5.45;2.58;;;24.00;45.80;;;;;;6143137;28;80657;-58
2024/02/10 14:57:59;;;;;;;3.70;2.40;;;24.00;45.80;;;;;;6143086;28;80561;-57
2024/02/10 15:01:00;;;;;;;5.35;2.67;;;23.90;45.80;;;;;;6148275;28;80400;-57
2024/02/10 15:04:05;;;;;;;4.45;2.45;;;23.90;45.60;;;;;;6153211;28;80899;-57
2024/02/10 15:07:06;;;;;;;4.90;2.50;;;23.90;45.50;;;;;;6142142;28;80515;-58
2024/02/10 15:10:06;;;;;;;4.93;2.53;;;23.90;45.40;;;;;;6156335;28;81608;-57
2024/02/10 15:13:07;;;;;;;7.05;2.92;;;23.90;45.50;;;;;;6163669;28;80735;-57
2024/02/10 15:16:08;;;;;;;5.45;2.67;;;23.80;45.30;;;;;;6150469;28;80384;-56
2024/02/10 15:19:08;;;;;;;5.72;2.63;;;23.80;45.30;;;;;;6149441;28;81743;-57
2024/02/10 15:22:09;;;;;;;4.03;2.45;;;23.80;45.40;;;;;;6150556;28;80861;-59
2024/02/10 15:25:13;;;;;;;5.13;2.85;;;23.80;45.90;;;;;;6141877;28;80463;-59
2024/02/10 15:28:19;;;;;;;5.95;2.97;;;23.60;46.00;;;;;;6153764;28;81068;-61
2024/02/10 15:31:20;;;;;;;5.43;3.05;;;23.60;46.90;;;;;;6157806;28;83172;-59
2024/02/10 15:34:21;;;;;;;7.47;3.00;;;23.60;48.10;;;;;;6153580;28;80445;-59
2024/02/10 15:37:24;;;;;;;4.47;3.00;;;23.60;48.40;;;;;;6144946;28;80864;-59
2024/02/10 15:40:25;;;;;;;6.57;3.78;;;23.60;48.90;;;;;;6151196;28;80542;-59
2024/02/10 15:43:31;;;;;;;5.50;3.67;;;23.60;49.20;;;;;;6153072;28;81304;-60
2024/02/10 15:46:32;;;;;;;6.80;4.03;;;23.60;49.60;;;;;;6152694;28;81136;-59
2024/02/10 15:49:34;;;;;;;7.93;4.20;;;23.60;49.70;;;;;;6147494;28;80716;-60
2024/02/10 15:52:34;;;;;;;7.47;4.03;;;23.50;50.20;;;;;;6149591;28;83049;-53
2024/02/10 15:55:35;;;;;;;8.35;4.60;;;23.50;49.90;;;;;;6151408;28;80355;-59